In Salah, In Salah Airport (DAUI)

NameIn Salah Airport
CityIn Salah
CountryAlgeria
ICAODAUI
IATAINZ
Altitude273 m
CoordinatesGoogle Map
Live Air TrafficLiveATC.net
METARDAUI 120845Z 06026KT 1500 DRSA NSC 17/M02 Q1017
2018-11-12 08:45:00 Wind: Northeast (60°) 13.38 m/s - Visibility: 1500 m - Temperature: 17 °C - Dew point: -2 °C - Humidity: 27.4% - Pressure: 1017 hPa
Statistics

The table below shows the detailed information of all flights to/from In Salah, In Salah Airport (DAUI).